createdAt,value
2016-12-28T00:00:22.939Z,5.8
2016-12-28T00:01:33.925Z,5.84
2016-12-28T00:02:44.918Z,5.8
2016-12-28T00:03:55.914Z,5.81
2016-12-28T00:05:06.950Z,5.91
2016-12-28T00:06:17.939Z,5.84
2016-12-28T00:07:28.924Z,5.8
2016-12-28T00:08:39.911Z,5.8
2016-12-28T00:09:50.933Z,5.77
2016-12-28T00:11:02.115Z,5.77
2016-12-28T00:12:13.099Z,5.87
2016-12-28T00:13:24.082Z,5.8
2016-12-28T00:14:35.303Z,5.85
2016-12-28T00:15:46.288Z,5.78
2016-12-28T00:16:57.469Z,5.85
2016-12-28T00:18:08.455Z,5.84
2016-12-28T00:19:19.440Z,5.84
2016-12-28T00:20:30.420Z,5.84
2016-12-28T00:21:41.596Z,5.91
2016-12-28T00:22:52.788Z,5.88
2016-12-28T00:24:03.779Z,5.84
2016-12-28T00:25:14.766Z,5.82
2016-12-28T00:26:25.756Z,5.87
2016-12-28T00:27:36.731Z,5.85
2016-12-28T00:28:47.723Z,5.82
2016-12-28T00:29:58.707Z,5.87
2016-12-28T00:31:09.890Z,5.84
2016-12-28T00:32:21.078Z,5.88
2016-12-28T00:33:32.262Z,5.84
2016-12-28T00:34:43.250Z,5.81
2016-12-28T00:35:54.227Z,5.82
2016-12-28T00:37:05.211Z,5.87
2016-12-28T00:38:16.408Z,5.87
2016-12-28T00:39:27.399Z,5.78
2016-12-28T00:40:38.380Z,5.8
2016-12-28T00:41:49.367Z,5.81
2016-12-28T00:43:00.551Z,5.84
2016-12-28T00:44:11.537Z,5.8
2016-12-28T00:45:22.523Z,5.82
2016-12-28T00:46:33.509Z,5.8
2016-12-28T00:47:44.488Z,5.73
2016-12-28T00:48:55.478Z,5.77
2016-12-28T00:50:06.473Z,5.8
2016-12-28T00:51:17.461Z,5.77
2016-12-28T00:52:28.641Z,5.75
2016-12-28T00:53:39.632Z,5.77
2016-12-28T00:54:50.614Z,5.63
2016-12-28T00:56:01.596Z,5.67
2016-12-28T00:57:12.593Z,5.57
2016-12-28T00:58:23.574Z,5.59
2016-12-28T00:59:34.751Z,5.55
2016-12-28T01:00:45.942Z,5.63
2016-12-28T01:01:56.919Z,5.57
2016-12-28T01:03:07.895Z,5.55
2016-12-28T01:04:18.876Z,5.57
2016-12-28T01:05:29.868Z,5.55
2016-12-28T01:06:41.051Z,5.57
2016-12-28T01:07:52.042Z,5.59
2016-12-28T01:09:03.031Z,5.55
2016-12-28T01:10:14.019Z,5.57
2016-12-28T01:11:25.006Z,5.42
2016-12-28T01:12:35.987Z,5.55
2016-12-28T01:13:46.974Z,5.44
2016-12-28T01:14:58.164Z,5.41
2016-12-28T01:16:09.344Z,5.44
2016-12-28T01:17:20.322Z,5.45
2016-12-28T01:18:31.307Z,5.37
2016-12-28T01:19:42.294Z,5.37
2016-12-28T01:20:53.269Z,5.31
2016-12-28T01:22:04.256Z,5.28
2016-12-28T01:23:15.243Z,5.3
2016-12-28T01:24:26.241Z,5.31
2016-12-28T01:25:37.240Z,5.28
2016-12-28T01:26:48.427Z,5.33
2016-12-28T01:27:59.419Z,5.33
2016-12-28T01:29:10.411Z,5.3
2016-12-28T01:30:21.447Z,5.3
2016-12-28T01:31:32.422Z,5.3
2016-12-28T01:32:43.430Z,5.3
2016-12-28T01:33:54.421Z,5.24
2016-12-28T01:35:05.404Z,5.28
2016-12-28T01:36:16.798Z,5.28
2016-12-28T01:37:27.811Z,5.33
2016-12-28T01:38:38.792Z,5.3
2016-12-28T01:39:49.781Z,5.3
2016-12-28T01:41:00.969Z,5.3
2016-12-28T01:42:11.959Z,5.27
2016-12-28T01:43:22.940Z,5.24
2016-12-28T01:44:34.124Z,5.2
2016-12-28T01:45:45.110Z,5.3
2016-12-28T01:46:56.294Z,5.26
2016-12-28T01:48:07.482Z,5.28
2016-12-28T01:49:18.474Z,5.24
2016-12-28T01:50:29.459Z,5.26
2016-12-28T01:51:40.445Z,5.24
2016-12-28T01:52:51.427Z,5.16
2016-12-28T01:54:02.612Z,5.16
2016-12-28T01:55:14.403Z,5.12
2016-12-28T01:56:25.387Z,5.1
2016-12-28T01:57:36.369Z,5.18
2016-12-28T01:58:47.338Z,5.06
2016-12-28T01:59:58.523Z,5.08
2016-12-28T02:01:09.513Z,5.12
2016-12-28T02:02:20.692Z,5.02
2016-12-28T02:03:31.686Z,5.03
2016-12-28T02:04:42.667Z,5
2016-12-28T02:05:53.844Z,5.02
2016-12-28T02:07:05.023Z,4.95
2016-12-28T02:08:16.012Z,4.94
2016-12-28T02:09:26.996Z,4.85
2016-12-28T02:10:38.570Z,5.02
2016-12-28T02:11:49.551Z,4.87
2016-12-28T02:13:00.534Z,4.9
2016-12-28T02:14:11.523Z,4.88
2016-12-28T02:15:22.507Z,4.92
2016-12-28T02:16:33.488Z,4.92
2016-12-28T02:17:44.675Z,4.84
2016-12-28T02:18:55.859Z,4.85
2016-12-28T02:20:07.055Z,4.83
2016-12-28T02:21:18.033Z,4.84
2016-12-28T02:22:29.214Z,4.83
2016-12-28T02:23:40.400Z,4.76
2016-12-28T02:24:51.392Z,4.76
2016-12-28T02:26:02.375Z,4.68
2016-12-28T02:27:13.359Z,4.87
2016-12-28T02:28:24.337Z,4.78
2016-12-28T02:29:35.323Z,4.74
2016-12-28T02:30:46.334Z,4.76
2016-12-28T02:31:57.315Z,4.64
2016-12-28T02:33:08.307Z,4.65
2016-12-28T02:34:19.291Z,4.69
2016-12-28T02:35:30.320Z,4.65
2016-12-28T02:36:41.311Z,4.66
2016-12-28T02:37:52.316Z,4.71
2016-12-28T02:39:03.303Z,4.6
2016-12-28T02:40:14.284Z,4.65
2016-12-28T02:41:25.520Z,4.57
2016-12-28T02:42:36.502Z,4.6
2016-12-28T02:43:47.494Z,4.58
2016-12-28T02:44:58.480Z,4.56
2016-12-28T02:46:09.467Z,4.56
2016-12-28T02:47:20.493Z,4.39
2016-12-28T02:48:31.682Z,4.4
2016-12-28T02:49:42.659Z,4.44
2016-12-28T02:50:53.643Z,4.32
2016-12-28T02:52:04.630Z,4.36
2016-12-28T02:53:15.616Z,4.35
2016-12-28T02:54:26.598Z,4.33
2016-12-28T02:55:37.585Z,4.29
2016-12-28T02:56:48.568Z,4.2
2016-12-28T02:57:59.758Z,4.22
2016-12-28T02:59:10.793Z,4.18
2016-12-28T03:00:21.975Z,4.21
2016-12-28T03:01:32.951Z,4.15
2016-12-28T03:02:43.957Z,4.15
2016-12-28T03:03:54.990Z,4.12
2016-12-28T03:05:05.978Z,4.18
2016-12-28T03:06:17.172Z,4.12
2016-12-28T03:07:28.159Z,4.21
2016-12-28T03:08:39.141Z,4.18
2016-12-28T03:09:50.179Z,4.15
2016-12-28T03:11:01.163Z,4.17
2016-12-28T03:12:12.146Z,4.15
2016-12-28T03:13:23.329Z,4.17
2016-12-28T03:15:05.935Z,4.2
2016-12-28T03:16:16.920Z,4.15
2016-12-28T03:17:27.906Z,4.04
2016-12-28T03:18:38.891Z,4.14
2016-12-28T03:19:49.875Z,4.12
2016-12-28T03:21:01.111Z,4.11
2016-12-28T03:22:12.311Z,4.07
2016-12-28T03:23:23.290Z,4.12
2016-12-28T03:24:34.281Z,4.12
2016-12-28T03:25:45.459Z,4.14
2016-12-28T03:26:56.444Z,4.04
2016-12-28T03:28:07.460Z,4.14
2016-12-28T03:29:18.446Z,4.04
2016-12-28T03:30:29.431Z,3.97
2016-12-28T03:31:40.419Z,4.02
2016-12-28T03:32:51.399Z,4.02
2016-12-28T03:34:02.379Z,4.03
2016-12-28T03:35:13.561Z,4
2016-12-28T03:36:24.550Z,4
2016-12-28T03:37:35.531Z,3.96
2016-12-28T03:38:46.716Z,3.97
2016-12-28T03:39:57.707Z,3.94
2016-12-28T03:41:08.687Z,3.93
2016-12-28T03:42:19.672Z,3.97
2016-12-28T03:43:30.648Z,3.97
2016-12-28T03:44:41.630Z,3.96
2016-12-28T03:45:52.621Z,3.93
2016-12-28T03:47:03.608Z,3.94
2016-12-28T03:48:14.590Z,3.93
2016-12-28T03:49:25.775Z,3.94
2016-12-28T03:50:36.768Z,3.93
2016-12-28T03:51:47.751Z,3.92
2016-12-28T03:52:58.732Z,3.89
2016-12-28T03:54:09.709Z,3.89
2016-12-28T03:55:20.697Z,3.9
2016-12-28T03:56:31.691Z,3.84
2016-12-28T03:57:42.678Z,3.86
2016-12-28T03:58:53.875Z,3.9
2016-12-28T04:00:04.935Z,3.9
2016-12-28T04:01:15.926Z,3.89
2016-12-28T04:02:26.909Z,3.74
2016-12-28T04:03:37.883Z,3.85
2016-12-28T04:04:48.870Z,3.69
2016-12-28T04:05:59.858Z,3.84
2016-12-28T04:07:10.850Z,3.79
2016-12-28T04:08:21.833Z,3.71
2016-12-28T04:09:32.813Z,3.84
2016-12-28T04:10:43.807Z,3.72
2016-12-28T04:11:54.992Z,3.72
2016-12-28T04:13:05.969Z,3.67
2016-12-28T04:14:16.956Z,3.72
2016-12-28T04:15:28.140Z,3.6
2016-12-28T04:16:39.121Z,3.57
2016-12-28T04:17:50.106Z,3.6
2016-12-28T04:19:01.090Z,3.58
2016-12-28T04:20:12.069Z,3.58
2016-12-28T04:21:23.079Z,3.54
2016-12-28T04:22:34.265Z,3.54
2016-12-28T04:23:45.245Z,3.49
2016-12-28T04:24:56.227Z,3.51
2016-12-28T04:26:07.211Z,3.51
2016-12-28T04:27:18.197Z,3.56
2016-12-28T04:28:29.186Z,3.54
2016-12-28T04:29:40.172Z,3.42
2016-12-28T04:30:51.164Z,3.42
2016-12-28T04:32:02.349Z,3.39
2016-12-28T04:33:13.334Z,3.29
2016-12-28T04:34:24.323Z,3.3
2016-12-28T04:35:35.303Z,3.27
2016-12-28T04:36:46.288Z,3.29
2016-12-28T04:37:57.274Z,3.24
2016-12-28T04:39:08.257Z,3.3
2016-12-28T04:40:19.241Z,3.23
2016-12-28T04:41:30.232Z,3.23
2016-12-28T04:42:41.220Z,3.13
2016-12-28T04:43:52.411Z,3.14
2016-12-28T04:45:03.396Z,3.14
2016-12-28T04:46:14.385Z,3.03
2016-12-28T04:47:25.776Z,3.08
2016-12-28T04:48:36.765Z,2.98
2016-12-28T04:49:47.952Z,3.03
2016-12-28T04:50:59.145Z,3.03
2016-12-28T04:52:10.136Z,2.91
2016-12-28T04:53:21.123Z,2.9
2016-12-28T04:54:32.098Z,2.83
2016-12-28T04:55:43.093Z,2.83
2016-12-28T04:56:54.074Z,2.88
2016-12-28T04:58:05.057Z,2.87
2016-12-28T04:59:16.247Z,2.77
2016-12-28T05:00:27.276Z,2.83
2016-12-28T05:01:38.461Z,2.65
2016-12-28T05:02:49.451Z,2.65
2016-12-28T05:04:00.627Z,2.58
2016-12-28T05:05:11.609Z,2.66
2016-12-28T05:06:22.597Z,2.65
2016-12-28T05:07:33.585Z,2.63
2016-12-28T05:08:44.804Z,2.6
2016-12-28T05:09:55.787Z,2.65
2016-12-28T05:11:06.768Z,2.65
2016-12-28T05:12:17.753Z,2.65
2016-12-28T05:13:28.748Z,2.63
2016-12-28T05:14:39.730Z,2.54
2016-12-28T05:15:50.917Z,2.48
2016-12-28T05:17:01.892Z,2.44
2016-12-28T05:18:13.078Z,2.4
2016-12-28T05:19:24.064Z,2.38
2016-12-28T05:20:35.050Z,2.42
2016-12-28T05:21:46.037Z,2.47
2016-12-28T05:22:57.022Z,2.4
2016-12-28T05:24:08.000Z,2.48
2016-12-28T05:25:18.983Z,2.4
2016-12-28T05:26:29.972Z,2.44
2016-12-28T05:27:41.185Z,2.42
2016-12-28T05:28:52.373Z,2.44
2016-12-28T05:30:03.356Z,2.42
2016-12-28T05:31:14.346Z,2.41
2016-12-28T05:32:25.529Z,2.36
2016-12-28T05:33:36.718Z,2.38
2016-12-28T05:34:47.696Z,2.26
2016-12-28T05:35:58.675Z,2.18
2016-12-28T05:37:09.659Z,2.22
2016-12-28T05:38:20.840Z,2.06
2016-12-28T05:39:31.820Z,2.16
2016-12-28T05:40:42.810Z,2.24
2016-12-28T05:41:53.791Z,2.06
2016-12-28T05:43:04.781Z,2.08
2016-12-28T05:44:15.763Z,2.08
2016-12-28T05:45:26.751Z,2.02
2016-12-28T05:46:37.935Z,2.08
2016-12-28T05:47:48.913Z,2.11
2016-12-28T05:48:59.896Z,2.09
2016-12-28T05:50:11.077Z,1.98
2016-12-28T05:51:22.064Z,1.83
2016-12-28T05:52:33.051Z,1.82
2016-12-28T05:53:44.035Z,1.83
2016-12-28T05:54:55.012Z,1.94
2016-12-28T05:56:06.011Z,1.86
2016-12-28T05:57:16.994Z,1.89
2016-12-28T05:58:28.002Z,1.86
2016-12-28T05:59:38.984Z,1.93
2016-12-28T06:00:49.974Z,1.83
2016-12-28T06:02:00.958Z,1.87
2016-12-28T06:03:11.942Z,1.89
2016-12-28T06:04:22.927Z,1.83
2016-12-28T06:05:33.911Z,1.89
2016-12-28T06:06:44.897Z,1.78
2016-12-28T06:07:56.081Z,1.53
2016-12-28T06:09:07.071Z,1.56
2016-12-28T06:10:18.258Z,1.54
2016-12-28T06:11:29.443Z,1.51
2016-12-28T06:12:40.638Z,1.64
2016-12-28T06:13:52.017Z,1.58
2016-12-28T06:15:02.996Z,1.69
2016-12-28T06:16:14.184Z,1.6
2016-12-28T06:17:25.174Z,1.56
2016-12-28T06:18:36.356Z,1.51
2016-12-28T06:19:47.337Z,1.51
2016-12-28T06:20:58.376Z,1.47
2016-12-28T06:22:09.362Z,1.48
2016-12-28T06:23:20.339Z,1.48
2016-12-28T06:24:31.352Z,1.58
2016-12-28T06:25:42.338Z,1.57
2016-12-28T06:26:53.323Z,1.6
2016-12-28T06:28:04.299Z,1.54
2016-12-28T06:29:15.283Z,1.48
2016-12-28T06:30:26.265Z,1.42
2016-12-28T06:31:37.247Z,1.29
2016-12-28T06:32:48.229Z,1.33
2016-12-28T06:33:59.224Z,1.3
2016-12-28T06:35:10.203Z,1.28
2016-12-28T06:36:21.191Z,1.32
2016-12-28T06:37:32.388Z,1.32
2016-12-28T06:38:43.365Z,1.28
2016-12-28T06:39:54.353Z,1.3
2016-12-28T06:41:05.532Z,1.29
2016-12-28T06:42:16.720Z,1.36
2016-12-28T06:43:27.701Z,1.36
2016-12-28T06:44:38.687Z,1.35
2016-12-28T06:45:49.667Z,1.26
2016-12-28T06:47:00.653Z,1.33
2016-12-28T06:48:11.634Z,1.29
2016-12-28T06:49:22.612Z,1.22
2016-12-28T06:50:33.838Z,1.2
2016-12-28T06:51:44.815Z,1.3
2016-12-28T06:52:55.999Z,1.18
2016-12-28T06:54:06.974Z,1.29
2016-12-28T06:55:17.960Z,1.32
2016-12-28T06:56:28.959Z,1.33
2016-12-28T06:57:39.941Z,1.32
2016-12-28T06:58:50.926Z,1.29
2016-12-28T07:00:01.914Z,1.32
2016-12-28T07:01:12.901Z,1.3
2016-12-28T07:02:24.088Z,1.32
2016-12-28T07:03:35.276Z,1.36
2016-12-28T07:04:46.259Z,1.36
2016-12-28T07:05:57.240Z,1.35
2016-12-28T07:07:08.227Z,1.33
2016-12-28T07:08:19.252Z,1.3
2016-12-28T07:09:30.232Z,1.35
2016-12-28T07:10:41.224Z,1.38
2016-12-28T07:11:52.213Z,1.4
2016-12-28T07:13:03.188Z,1.48
2016-12-28T07:14:14.172Z,1.5
2016-12-28T07:15:25.151Z,1.56
2016-12-28T07:16:36.125Z,1.69
2016-12-28T07:17:47.311Z,1.75
2016-12-28T07:18:58.494Z,1.9
2016-12-28T07:20:09.479Z,1.98
2016-12-28T07:21:20.657Z,2.04
2016-12-28T07:22:31.834Z,2.12
2016-12-28T07:23:43.020Z,2.16
2016-12-28T07:24:54.012Z,2.11
2016-12-28T07:26:04.991Z,2.16
2016-12-28T07:27:15.984Z,2.2
2016-12-28T07:28:27.160Z,2.3
2016-12-28T07:29:38.141Z,2.33
2016-12-28T07:30:49.121Z,2.3
2016-12-28T07:32:00.100Z,2.44
2016-12-28T07:33:11.082Z,2.42
2016-12-28T07:34:22.069Z,2.41
2016-12-28T07:35:33.199Z,2.47
2016-12-28T07:36:44.182Z,2.47
2016-12-28T07:37:55.169Z,2.45
2016-12-28T07:39:06.150Z,2.48
2016-12-28T07:40:17.125Z,2.54
2016-12-28T07:41:28.168Z,2.6
2016-12-28T07:42:39.145Z,2.62
2016-12-28T07:43:50.126Z,2.65
2016-12-28T07:45:01.101Z,2.6
2016-12-28T07:46:12.080Z,2.6
2016-12-28T07:47:23.264Z,2.58
2016-12-28T07:48:34.451Z,2.65
2016-12-28T07:49:45.426Z,2.65
2016-12-28T07:50:56.416Z,2.69
2016-12-28T07:52:07.637Z,2.76
2016-12-28T07:53:18.674Z,2.72
2016-12-28T07:54:30.062Z,2.67
2016-12-28T07:55:41.043Z,2.78
2016-12-28T07:56:52.038Z,2.8
2016-12-28T07:58:03.072Z,2.84
2016-12-28T07:59:14.257Z,2.77
2016-12-28T08:00:25.235Z,2.77
2016-12-28T08:01:36.229Z,2.81
2016-12-28T08:02:47.217Z,2.95
2016-12-28T08:03:58.268Z,2.93
2016-12-28T08:05:09.250Z,2.93
2016-12-28T08:06:20.229Z,2.93
2016-12-28T08:07:31.205Z,2.95
2016-12-28T08:08:42.193Z,3.02
2016-12-28T08:09:53.189Z,3.06
2016-12-28T08:11:04.179Z,3.11
2016-12-28T08:12:15.159Z,3.06
2016-12-28T08:13:26.149Z,3.16
2016-12-28T08:14:37.126Z,3.14
2016-12-28T08:15:48.307Z,3.17
2016-12-28T08:16:59.288Z,3.09
2016-12-28T08:18:10.273Z,3.14
2016-12-28T08:19:21.257Z,3.16
2016-12-28T08:20:32.264Z,3.11
2016-12-28T08:21:43.261Z,3.23
2016-12-28T08:22:54.236Z,3.23
2016-12-28T08:24:05.227Z,3.26
2016-12-28T08:25:16.224Z,3.29
2016-12-28T08:26:27.209Z,3.3
2016-12-28T08:27:38.196Z,3.24
2016-12-28T08:28:49.181Z,3.29
2016-12-28T08:30:00.363Z,3.2
2016-12-28T08:31:11.346Z,3.29
2016-12-28T08:32:22.325Z,3.32
2016-12-28T08:33:33.311Z,3.35
2016-12-28T08:34:44.296Z,3.32
2016-12-28T08:35:55.277Z,3.24
2016-12-28T08:37:06.266Z,3.26
2016-12-28T08:38:17.255Z,3.39
2016-12-28T08:39:28.234Z,3.32
2016-12-28T08:40:39.216Z,3.4
2016-12-28T08:41:50.201Z,3.4
2016-12-28T08:43:01.190Z,3.39
2016-12-28T08:44:12.168Z,3.43
2016-12-28T08:45:23.204Z,3.45
2016-12-28T08:46:34.183Z,3.39
2016-12-28T08:47:45.600Z,3.42
2016-12-28T08:48:56.587Z,3.45
2016-12-28T08:50:07.595Z,3.6
2016-12-28T08:51:18.796Z,3.54
2016-12-28T08:52:29.780Z,3.48
2016-12-28T08:53:40.760Z,3.58
2016-12-28T08:54:51.751Z,3.57
2016-12-28T08:56:02.746Z,3.6
2016-12-28T08:57:13.729Z,3.54
2016-12-28T08:58:24.710Z,3.54
2016-12-28T08:59:35.691Z,3.57
2016-12-28T09:00:46.674Z,3.63
2016-12-28T09:01:57.655Z,3.63
2016-12-28T09:03:08.635Z,3.63
2016-12-28T09:04:19.613Z,3.72
2016-12-28T09:05:30.801Z,3.67
2016-12-28T09:06:42.215Z,3.67
2016-12-28T09:07:53.402Z,3.71
2016-12-28T09:09:04.380Z,3.74
2016-12-28T09:10:15.571Z,3.76
2016-12-28T09:11:26.557Z,3.74
2016-12-28T09:12:37.743Z,3.85
2016-12-28T09:13:48.726Z,3.78
2016-12-28T09:14:59.708Z,3.74
2016-12-28T09:16:10.955Z,3.81
2016-12-28T09:17:21.977Z,3.72
2016-12-28T09:18:32.961Z,3.81
2016-12-28T09:19:43.948Z,3.74
2016-12-28T09:20:54.930Z,3.67
2016-12-28T09:22:05.915Z,3.72
2016-12-28T09:23:16.905Z,3.71
2016-12-28T09:24:27.888Z,3.76
2016-12-28T09:25:38.871Z,3.76
2016-12-28T09:26:49.857Z,3.74
2016-12-28T09:28:00.838Z,3.86
2016-12-28T09:29:11.829Z,3.81
2016-12-28T09:30:22.821Z,3.81
2016-12-28T09:31:33.834Z,3.82
2016-12-28T09:32:44.816Z,3.79
2016-12-28T09:33:55.798Z,3.85
2016-12-28T09:35:06.987Z,3.81
2016-12-28T09:36:17.967Z,3.89
2016-12-28T09:37:29.144Z,3.94
2016-12-28T09:38:40.157Z,3.96
2016-12-28T09:39:51.140Z,3.9
2016-12-28T09:41:02.331Z,3.92
2016-12-28T09:42:13.316Z,3.99
2016-12-28T09:43:24.304Z,4.02
2016-12-28T09:44:35.289Z,4.04
2016-12-28T09:45:46.274Z,4.03
2016-12-28T09:46:57.266Z,4.08
2016-12-28T09:48:08.248Z,4.04
2016-12-28T09:49:19.234Z,4.15
2016-12-28T09:50:30.231Z,4.15
2016-12-28T09:51:41.228Z,4.24
2016-12-28T09:52:52.214Z,4.21
2016-12-28T09:54:03.196Z,4.24
2016-12-28T09:55:14.179Z,4.24
2016-12-28T09:56:25.165Z,4.36
2016-12-28T09:57:36.159Z,4.3
2016-12-28T09:58:47.138Z,4.38
2016-12-28T09:59:58.141Z,4.38
2016-12-28T10:01:09.130Z,4.54
2016-12-28T10:02:20.339Z,4.5
2016-12-28T10:03:31.525Z,4.5
2016-12-28T10:04:42.509Z,4.46
2016-12-28T10:05:53.492Z,4.53
2016-12-28T10:07:04.702Z,4.46
2016-12-28T10:08:15.691Z,4.4
2016-12-28T10:09:26.872Z,4.42
2016-12-28T10:10:37.905Z,4.39
2016-12-28T10:11:48.886Z,4.44
2016-12-28T10:12:59.881Z,4.5
2016-12-28T10:14:11.090Z,4.48
2016-12-28T10:15:22.077Z,4.46
2016-12-28T10:16:33.099Z,4.5
2016-12-28T10:17:44.285Z,4.53
2016-12-28T10:18:55.270Z,4.6
2016-12-28T10:20:06.262Z,4.53
2016-12-28T10:21:17.653Z,4.58
2016-12-28T10:22:28.641Z,4.61
2016-12-28T10:23:39.635Z,4.65
2016-12-28T10:24:51.026Z,4.66
2016-12-28T10:26:02.028Z,4.72
2016-12-28T10:27:13.011Z,4.85
2016-12-28T10:28:23.993Z,4.76
2016-12-28T10:29:34.979Z,4.84
2016-12-28T10:30:46.219Z,4.9
2016-12-28T10:31:57.205Z,4.85
2016-12-28T10:33:08.185Z,4.94
2016-12-28T10:34:19.170Z,4.88
2016-12-28T10:35:30.366Z,4.9
2016-12-28T10:36:41.400Z,4.97
2016-12-28T10:37:52.390Z,4.97
2016-12-28T10:39:03.377Z,4.95
2016-12-28T10:40:14.363Z,5
2016-12-28T10:41:25.356Z,5.06
2016-12-28T10:42:36.393Z,5.02
2016-12-28T10:43:47.394Z,5.03
2016-12-28T10:44:58.389Z,5.02
2016-12-28T10:46:09.571Z,5.03
2016-12-28T10:47:20.583Z,4.95
2016-12-28T10:48:31.569Z,5
2016-12-28T10:49:42.559Z,5.02
2016-12-28T10:50:53.539Z,5.12
2016-12-28T10:52:04.526Z,5.12
2016-12-28T10:53:15.560Z,5.2
2016-12-28T10:54:26.549Z,5.2
2016-12-28T10:55:37.538Z,5.28
2016-12-28T10:56:48.521Z,5.34
2016-12-28T10:57:59.505Z,5.44
2016-12-28T10:59:10.542Z,5.42
2016-12-28T11:00:21.556Z,5.41
2016-12-28T11:01:32.536Z,5.46
2016-12-28T11:02:43.518Z,5.51
2016-12-28T11:03:54.697Z,5.55
2016-12-28T11:05:05.733Z,5.64
2016-12-28T11:06:16.719Z,5.72
2016-12-28T11:07:27.710Z,5.72
2016-12-28T11:08:38.693Z,5.67
2016-12-28T11:09:49.679Z,5.7
2016-12-28T11:11:00.900Z,5.75
2016-12-28T11:12:12.096Z,5.7
2016-12-28T11:13:23.109Z,5.73
2016-12-28T11:14:34.092Z,5.77
2016-12-28T11:15:45.080Z,5.73
2016-12-28T11:16:56.076Z,5.73
2016-12-28T11:18:07.062Z,5.73
2016-12-28T11:19:18.456Z,5.73
2016-12-28T11:20:29.483Z,5.78
2016-12-28T11:21:40.469Z,5.75
2016-12-28T11:22:51.450Z,5.81
2016-12-28T11:24:02.440Z,5.73
2016-12-28T11:25:13.424Z,5.73
2016-12-28T11:26:24.407Z,5.78
2016-12-28T11:27:35.392Z,5.7
2016-12-28T11:28:46.605Z,5.73
2016-12-28T11:29:57.987Z,5.8
2016-12-28T11:31:08.970Z,5.77
2016-12-28T11:32:20.152Z,5.69
2016-12-28T11:33:31.346Z,5.73
2016-12-28T11:34:42.331Z,5.75
2016-12-28T11:35:53.318Z,5.73
2016-12-28T11:37:04.303Z,5.7
2016-12-28T11:38:15.288Z,5.7
2016-12-28T11:39:26.273Z,5.7
2016-12-28T11:40:37.255Z,5.8
2016-12-28T11:41:48.247Z,5.8
2016-12-28T11:42:59.232Z,5.8
2016-12-28T11:44:10.216Z,5.85
2016-12-28T11:45:21.202Z,5.87
2016-12-28T11:46:32.187Z,5.84
2016-12-28T11:47:43.207Z,5.85
2016-12-28T11:48:54.402Z,5.82
2016-12-28T11:50:05.439Z,5.78
2016-12-28T11:51:16.432Z,5.85
2016-12-28T11:52:27.662Z,5.85
2016-12-28T11:53:38.811Z,5.87
2016-12-28T11:54:50.218Z,5.87
2016-12-28T11:56:01.619Z,5.96
2016-12-28T11:57:13.016Z,5.84
2016-12-28T11:58:24.420Z,5.98
2016-12-28T11:59:35.827Z,5.95
2016-12-28T12:00:47.236Z,5.92
2016-12-28T12:01:58.681Z,5.98
2016-12-28T12:03:10.108Z,5.91
2016-12-28T12:04:21.514Z,5.92
2016-12-28T12:05:32.914Z,5.89
2016-12-28T12:06:44.313Z,5.88
2016-12-28T12:07:55.720Z,5.92
2016-12-28T12:09:07.126Z,5.89
2016-12-28T12:10:18.532Z,5.95
2016-12-28T12:11:29.928Z,5.98
2016-12-28T12:12:41.330Z,6
2016-12-28T12:13:52.762Z,5.96
2016-12-28T12:15:04.164Z,5.95
2016-12-28T12:16:15.571Z,5.95
2016-12-28T12:17:26.965Z,6.02
2016-12-28T12:18:38.363Z,5.98
2016-12-28T12:19:49.758Z,5.98
2016-12-28T12:21:01.157Z,6
2016-12-28T12:22:12.554Z,6
2016-12-28T12:23:23.964Z,5.95
2016-12-28T12:24:35.362Z,5.96
2016-12-28T12:25:46.957Z,5.98
2016-12-28T12:26:58.356Z,6
2016-12-28T12:28:09.753Z,5.99
2016-12-28T12:29:21.155Z,6.06
2016-12-28T12:30:32.567Z,6.05
2016-12-28T12:31:43.971Z,6.06
2016-12-28T12:32:55.370Z,6.06
2016-12-28T12:34:06.785Z,6.07
2016-12-28T12:35:18.185Z,6.1
2016-12-28T12:36:29.592Z,6.13
2016-12-28T12:37:41.197Z,6.13
2016-12-28T12:38:52.607Z,6.14
2016-12-28T12:40:04.013Z,6.06
2016-12-28T12:41:15.408Z,6.14
2016-12-28T12:42:26.831Z,6.13
2016-12-28T12:43:38.230Z,6.05
2016-12-28T12:44:50.064Z,6.06
2016-12-28T12:46:01.661Z,6.03
2016-12-28T12:47:13.068Z,5.98
2016-12-28T12:48:24.467Z,5.92
2016-12-28T12:49:35.879Z,5.96
2016-12-28T12:50:47.479Z,6.02
2016-12-28T12:51:58.883Z,5.96
2016-12-28T12:53:10.292Z,6
2016-12-28T12:54:21.697Z,5.98
2016-12-28T12:55:33.133Z,6.02
2016-12-28T12:56:44.539Z,6.03
2016-12-28T12:57:55.940Z,6.06
2016-12-28T12:59:07.377Z,6.06
2016-12-28T13:00:18.974Z,6.09
2016-12-28T13:01:30.578Z,6.1
2016-12-28T13:02:42.173Z,6.09
2016-12-28T13:03:53.581Z,6.1
2016-12-28T13:05:05.027Z,6.09
2016-12-28T13:06:16.473Z,6.09
2016-12-28T13:07:27.885Z,6.17
2016-12-28T13:08:39.283Z,6.2
2016-12-28T13:09:50.684Z,6.13
2016-12-28T13:11:02.089Z,6.15
2016-12-28T13:12:13.493Z,6.18
2016-12-28T13:13:24.882Z,6.15
2016-12-28T13:14:36.489Z,6.17
2016-12-28T13:15:47.901Z,6.06
2016-12-28T13:16:59.294Z,6.15
2016-12-28T13:18:10.702Z,6.15
2016-12-28T13:19:22.304Z,6.17
2016-12-28T13:20:33.697Z,6.25
2016-12-28T13:21:45.298Z,6.15
2016-12-28T13:22:56.695Z,6.21
2016-12-28T13:24:08.088Z,6.21
2016-12-28T13:25:19.477Z,6.26
2016-12-28T13:26:30.881Z,6.21
2016-12-28T13:27:42.488Z,6.25
2016-12-28T13:28:54.095Z,6.31
2016-12-28T13:30:05.499Z,6.39
2016-12-28T13:31:16.900Z,6.31
2016-12-28T13:32:28.318Z,6.33
2016-12-28T13:33:39.716Z,6.28
2016-12-28T13:34:51.119Z,6.21
2016-12-28T13:36:02.519Z,6.31
2016-12-28T13:37:13.922Z,6.29
2016-12-28T13:38:25.328Z,6.28
2016-12-28T13:39:36.930Z,6.28
2016-12-28T13:40:48.334Z,6.31
2016-12-28T13:41:59.729Z,6.31
2016-12-28T13:43:11.340Z,6.36
2016-12-28T13:44:22.740Z,6.36
2016-12-28T13:45:34.151Z,6.31
2016-12-28T13:46:45.557Z,6.37
2016-12-28T13:47:56.957Z,6.29
2016-12-28T13:49:08.369Z,6.34
2016-12-28T13:50:19.775Z,6.39
2016-12-28T13:51:31.159Z,6.25
2016-12-28T13:52:42.567Z,6.21
2016-12-28T13:53:53.978Z,6.13
2016-12-28T13:55:05.578Z,6.18
2016-12-28T13:56:16.986Z,6.15
2016-12-28T13:57:28.378Z,6.2
2016-12-28T13:58:39.777Z,6.21
2016-12-28T13:59:51.571Z,6.17
2016-12-28T14:01:02.973Z,6.13
2016-12-28T14:02:14.370Z,6.25
2016-12-28T14:03:25.776Z,6.24
2016-12-28T14:04:37.175Z,6.18
2016-12-28T14:05:48.583Z,6.24
2016-12-28T14:06:59.987Z,6.21
2016-12-28T14:08:11.386Z,6.26
2016-12-28T14:09:22.780Z,6.25
2016-12-28T14:10:34.226Z,6.28
2016-12-28T14:11:45.647Z,6.26
2016-12-28T14:12:57.045Z,6.39
2016-12-28T14:14:08.457Z,6.36
2016-12-28T14:15:19.855Z,6.34
2016-12-28T14:16:31.258Z,6.33
2016-12-28T14:17:42.657Z,6.29
2016-12-28T14:18:54.052Z,6.26
2016-12-28T14:20:05.458Z,6.24
2016-12-28T14:21:16.891Z,6.24
2016-12-28T14:22:28.491Z,6.24
2016-12-28T14:23:39.894Z,6.25
2016-12-28T14:24:51.314Z,6.2
2016-12-28T14:26:02.919Z,6.25
2016-12-28T14:27:14.330Z,6.24
2016-12-28T14:28:25.727Z,6.14
2016-12-28T14:29:37.134Z,6.1
2016-12-28T14:30:48.530Z,6.14
2016-12-28T14:31:59.935Z,6.06
2016-12-28T14:33:11.768Z,6.1
2016-12-28T14:34:23.167Z,6.13
2016-12-28T14:35:34.557Z,6.07
2016-12-28T14:36:46.199Z,6.13
2016-12-28T14:37:57.602Z,6.06
2016-12-28T14:39:09.012Z,6.06
2016-12-28T14:40:20.411Z,6.03
2016-12-28T14:41:31.812Z,6.06
2016-12-28T14:42:43.236Z,6.1
2016-12-28T14:43:54.645Z,6.1
2016-12-28T14:45:06.246Z,6.06
2016-12-28T14:46:17.645Z,6.07
2016-12-28T14:47:29.252Z,6.09
2016-12-28T14:48:40.694Z,6.05
2016-12-28T14:49:52.104Z,5.99
2016-12-28T14:51:03.563Z,6.02
2016-12-28T14:52:15.199Z,6.02
2016-12-28T14:53:26.605Z,5.99
2016-12-28T14:54:38.005Z,5.96
2016-12-28T14:55:49.462Z,6.02
2016-12-28T14:57:00.871Z,5.96
2016-12-28T14:58:12.309Z,6.06
2016-12-28T14:59:23.704Z,6.02
2016-12-28T15:00:35.112Z,6.05
2016-12-28T15:01:46.776Z,6.06
2016-12-28T15:02:58.181Z,6.1
2016-12-28T15:04:09.580Z,6.05
2016-12-28T15:05:21.013Z,6.03
2016-12-28T15:06:32.419Z,6
2016-12-28T15:07:43.873Z,6.05
2016-12-28T15:08:55.273Z,6.09
2016-12-28T15:10:06.670Z,5.92
2016-12-28T15:11:18.074Z,5.95
2016-12-28T15:12:29.479Z,5.92
2016-12-28T15:13:40.925Z,6.03
2016-12-28T15:14:52.348Z,5.96
2016-12-28T15:16:03.748Z,5.96
2016-12-28T15:17:15.189Z,5.98
2016-12-28T15:18:26.580Z,6
2016-12-28T15:19:38.031Z,6.03
2016-12-28T15:20:49.433Z,6
2016-12-28T15:22:01.037Z,5.95
2016-12-28T15:23:12.438Z,5.99
2016-12-28T15:24:23.837Z,5.96
2016-12-28T15:25:35.242Z,6
2016-12-28T15:26:46.829Z,6.02
2016-12-28T15:27:58.257Z,6.09
2016-12-28T15:29:09.656Z,6.03
2016-12-28T15:30:21.057Z,6.07
2016-12-28T15:31:32.460Z,6.02
2016-12-28T15:32:43.861Z,5.96
2016-12-28T15:33:55.257Z,6.07
2016-12-28T15:35:06.661Z,6.09
2016-12-28T15:36:18.066Z,6.05
2016-12-28T15:37:29.702Z,6.1
2016-12-28T15:38:41.108Z,6.06
2016-12-28T15:39:52.504Z,6.1
2016-12-28T15:41:03.901Z,6.05
2016-12-28T15:42:15.305Z,6.07
2016-12-28T15:43:26.705Z,6.05
2016-12-28T15:44:38.107Z,6.1
2016-12-28T15:45:49.509Z,6.05
2016-12-28T15:47:00.919Z,6.06
2016-12-28T15:48:12.319Z,6.06
2016-12-28T15:49:23.721Z,6.05
2016-12-28T15:50:35.121Z,6.02
2016-12-28T15:51:46.546Z,6.06
2016-12-28T15:52:57.944Z,5.98